sensor_id;sensor_type;location;lat;lon;timestamp;P1;durP1;ratioP1;P2;durP2;ratioP2
8584;SDS011;7180;52.742;11.420;2023-02-21T00:00:51;18.80;;;17.20;;
8584;SDS011;7180;52.742;11.420;2023-02-21T00:03:35;18.43;;;16.93;;
8584;SDS011;7180;52.742;11.420;2023-02-21T00:06:19;19.67;;;17.97;;
8584;SDS011;7180;52.742;11.420;2023-02-21T00:09:03;19.20;;;17.60;;
8584;SDS011;7180;52.742;11.420;2023-02-21T00:11:47;19.03;;;17.30;;
8584;SDS011;7180;52.742;11.420;2023-02-21T00:14:31;19.70;;;18.00;;
8584;SDS011;7180;52.742;11.420;2023-02-21T00:17:15;18.97;;;17.43;;
8584;SDS011;7180;52.742;11.420;2023-02-21T00:19:59;18.77;;;17.20;;
8584;SDS011;7180;52.742;11.420;2023-02-21T00:22:43;18.40;;;16.80;;
8584;SDS011;7180;52.742;11.420;2023-02-21T00:25:28;18.13;;;16.63;;
8584;SDS011;7180;52.742;11.420;2023-02-21T00:28:12;19.27;;;17.67;;
8584;SDS011;7180;52.742;11.420;2023-02-21T00:30:56;18.43;;;16.83;;
8584;SDS011;7180;52.742;11.420;2023-02-21T00:33:40;19.10;;;17.40;;
8584;SDS011;7180;52.742;11.420;2023-02-21T00:36:24;18.13;;;16.53;;
8584;SDS011;7180;52.742;11.420;2023-02-21T00:39:08;18.27;;;16.67;;
8584;SDS011;7180;52.742;11.420;2023-02-21T00:41:52;18.10;;;16.60;;
8584;SDS011;7180;52.742;11.420;2023-02-21T00:44:36;18.93;;;17.30;;
8584;SDS011;7180;52.742;11.420;2023-02-21T00:47:20;19.30;;;17.60;;
8584;SDS011;7180;52.742;11.420;2023-02-21T00:50:04;18.83;;;17.20;;
8584;SDS011;7180;52.742;11.420;2023-02-21T00:52:48;19.40;;;17.77;;
8584;SDS011;7180;52.742;11.420;2023-02-21T00:55:32;19.17;;;17.47;;
8584;SDS011;7180;52.742;11.420;2023-02-21T00:58:16;18.93;;;17.23;;
8584;SDS011;7180;52.742;11.420;2023-02-21T01:01:03;19.03;;;17.33;;
8584;SDS011;7180;52.742;11.420;2023-02-21T01:03:47;19.43;;;17.73;;
8584;SDS011;7180;52.742;11.420;2023-02-21T01:06:31;19.73;;;17.93;;
8584;SDS011;7180;52.742;11.420;2023-02-21T01:09:15;19.27;;;17.47;;
8584;SDS011;7180;52.742;11.420;2023-02-21T01:11:59;18.93;;;17.33;;
8584;SDS011;7180;52.742;11.420;2023-02-21T01:14:43;19.57;;;17.87;;
8584;SDS011;7180;52.742;11.420;2023-02-21T01:17:27;19.50;;;17.80;;
8584;SDS011;7180;52.742;11.420;2023-02-21T01:20:11;19.40;;;17.63;;
8584;SDS011;7180;52.742;11.420;2023-02-21T01:22:55;19.27;;;17.47;;
8584;SDS011;7180;52.742;11.420;2023-02-21T01:25:39;18.97;;;17.37;;
8584;SDS011;7180;52.742;11.420;2023-02-21T01:28:23;19.60;;;17.80;;
8584;SDS011;7180;52.742;11.420;2023-02-21T01:31:07;19.43;;;17.73;;
8584;SDS011;7180;52.742;11.420;2023-02-21T01:33:51;19.37;;;17.67;;
8584;SDS011;7180;52.742;11.420;2023-02-21T01:36:35;19.80;;;18.03;;
8584;SDS011;7180;52.742;11.420;2023-02-21T01:39:19;19.77;;;17.97;;
8584;SDS011;7180;52.742;11.420;2023-02-21T01:42:03;19.90;;;18.10;;
8584;SDS011;7180;52.742;11.420;2023-02-21T01:44:47;19.87;;;18.17;;
8584;SDS011;7180;52.742;11.420;2023-02-21T01:47:54;19.37;;;17.73;;
8584;SDS011;7180;52.742;11.420;2023-02-21T01:50:38;19.90;;;18.10;;
8584;SDS011;7180;52.742;11.420;2023-02-21T01:53:23;20.13;;;18.23;;
8584;SDS011;7180;52.742;11.420;2023-02-21T01:56:09;19.53;;;17.83;;
8584;SDS011;7180;52.742;11.420;2023-02-21T01:58:55;20.80;;;18.87;;
8584;SDS011;7180;52.742;11.420;2023-02-21T02:01:56;19.70;;;18.00;;
8584;SDS011;7180;52.742;11.420;2023-02-21T02:04:44;20.03;;;18.33;;
8584;SDS011;7180;52.742;11.420;2023-02-21T02:07:31;20.23;;;18.40;;
8584;SDS011;7180;52.742;11.420;2023-02-21T02:10:15;20.17;;;18.47;;
8584;SDS011;7180;52.742;11.420;2023-02-21T02:13:05;20.23;;;18.33;;
8584;SDS011;7180;52.742;11.420;2023-02-21T02:15:58;20.07;;;18.37;;
8584;SDS011;7180;52.742;11.420;2023-02-21T02:22:16;20.47;;;18.67;;
8584;SDS011;7180;52.742;11.420;2023-02-21T02:24:59;20.83;;;18.93;;
8584;SDS011;7180;52.742;11.420;2023-02-21T02:38:32;21.97;;;19.97;;
8584;SDS011;7180;52.742;11.420;2023-02-21T02:41:10;22.17;;;20.13;;
8584;SDS011;7180;52.742;11.420;2023-02-21T02:43:47;21.60;;;19.57;;
8584;SDS011;7180;52.742;11.420;2023-02-21T02:46:22;21.90;;;19.80;;
8584;SDS011;7180;52.742;11.420;2023-02-21T02:48:54;22.13;;;20.13;;
8584;SDS011;7180;52.742;11.420;2023-02-21T02:51:24;23.70;;;21.60;;
8584;SDS011;7180;52.742;11.420;2023-02-21T02:53:50;24.73;;;22.33;;
8584;SDS011;7180;52.742;11.420;2023-02-21T02:56:15;22.80;;;20.70;;
8584;SDS011;7180;52.742;11.420;2023-02-21T02:58:46;22.03;;;20.03;;
8584;SDS011;7180;52.742;11.420;2023-02-21T03:04:40;22.20;;;20.20;;
8584;SDS011;7180;52.742;11.420;2023-02-21T03:10:21;22.43;;;20.23;;
8584;SDS011;7180;52.742;11.420;2023-02-21T03:13:02;22.50;;;20.40;;
8584;SDS011;7180;52.742;11.420;2023-02-21T03:18:08;22.63;;;20.53;;
8584;SDS011;7180;52.742;11.420;2023-02-21T03:20:36;22.67;;;20.53;;
8584;SDS011;7180;52.742;11.420;2023-02-21T03:23:03;22.33;;;20.23;;
8584;SDS011;7180;52.742;11.420;2023-02-21T03:25:30;22.83;;;20.53;;
8584;SDS011;7180;52.742;11.420;2023-02-21T03:27:57;22.77;;;20.47;;
8584;SDS011;7180;52.742;11.420;2023-02-21T03:30:25;21.70;;;19.70;;
8584;SDS011;7180;52.742;11.420;2023-02-21T03:32:51;22.90;;;20.70;;
8584;SDS011;7180;52.742;11.420;2023-02-21T03:35:18;22.30;;;20.23;;
8584;SDS011;7180;52.742;11.420;2023-02-21T03:37:45;21.97;;;19.90;;
8584;SDS011;7180;52.742;11.420;2023-02-21T03:42:44;22.10;;;19.97;;
8584;SDS011;7180;52.742;11.420;2023-02-21T03:45:09;23.00;;;20.70;;
8584;SDS011;7180;52.742;11.420;2023-02-21T03:47:35;22.20;;;19.90;;
8584;SDS011;7180;52.742;11.420;2023-02-21T03:50:00;22.40;;;20.20;;
8584;SDS011;7180;52.742;11.420;2023-02-21T03:52:26;22.47;;;20.30;;
8584;SDS011;7180;52.742;11.420;2023-02-21T03:54:51;22.07;;;20.07;;
8584;SDS011;7180;52.742;11.420;2023-02-21T03:57:17;22.93;;;20.63;;
8584;SDS011;7180;52.742;11.420;2023-02-21T03:59:42;23.07;;;20.83;;
8584;SDS011;7180;52.742;11.420;2023-02-21T04:02:07;22.70;;;20.60;;
8584;SDS011;7180;52.742;11.420;2023-02-21T04:04:33;22.87;;;20.67;;
8584;SDS011;7180;52.742;11.420;2023-02-21T04:06:58;24.10;;;21.70;;
8584;SDS011;7180;52.742;11.420;2023-02-21T04:09:24;23.00;;;20.77;;
8584;SDS011;7180;52.742;11.420;2023-02-21T04:11:50;22.93;;;20.93;;
8584;SDS011;7180;52.742;11.420;2023-02-21T04:14:16;23.10;;;20.97;;
8584;SDS011;7180;52.742;11.420;2023-02-21T04:16:41;22.57;;;20.50;;
8584;SDS011;7180;52.742;11.420;2023-02-21T04:19:07;23.17;;;21.13;;
8584;SDS011;7180;52.742;11.420;2023-02-21T04:21:32;22.20;;;20.20;;
8584;SDS011;7180;52.742;11.420;2023-02-21T04:23:57;22.77;;;20.47;;
8584;SDS011;7180;52.742;11.420;2023-02-21T04:26:22;22.40;;;20.30;;
8584;SDS011;7180;52.742;11.420;2023-02-21T04:28:48;22.77;;;20.67;;
8584;SDS011;7180;52.742;11.420;2023-02-21T04:31:16;23.07;;;21.00;;
8584;SDS011;7180;52.742;11.420;2023-02-21T04:33:42;22.53;;;20.43;;
8584;SDS011;7180;52.742;11.420;2023-02-21T04:36:08;21.87;;;19.87;;
8584;SDS011;7180;52.742;11.420;2023-02-21T04:38:34;22.23;;;20.13;;
8584;SDS011;7180;52.742;11.420;2023-02-21T04:40:59;23.17;;;20.87;;
8584;SDS011;7180;52.742;11.420;2023-02-21T04:43:24;22.07;;;20.07;;
8584;SDS011;7180;52.742;11.420;2023-02-21T04:45:50;21.17;;;19.17;;
8584;SDS011;7180;52.742;11.420;2023-02-21T04:48:15;22.47;;;20.37;;
8584;SDS011;7180;52.742;11.420;2023-02-21T04:50:41;21.90;;;19.80;;
8584;SDS011;7180;52.742;11.420;2023-02-21T04:53:06;22.43;;;20.33;;
8584;SDS011;7180;52.742;11.420;2023-02-21T04:55:32;21.20;;;19.33;;
8584;SDS011;7180;52.742;11.420;2023-02-21T04:57:57;20.47;;;18.57;;
8584;SDS011;7180;52.742;11.420;2023-02-21T05:00:22;20.80;;;18.80;;
8584;SDS011;7180;52.742;11.420;2023-02-21T05:02:47;20.63;;;18.73;;
8584;SDS011;7180;52.742;11.420;2023-02-21T05:05:13;20.90;;;19.07;;
8584;SDS011;7180;52.742;11.420;2023-02-21T05:07:40;20.60;;;18.80;;
8584;SDS011;7180;52.742;11.420;2023-02-21T05:10:06;20.13;;;18.33;;
8584;SDS011;7180;52.742;11.420;2023-02-21T05:12:33;20.13;;;18.33;;
8584;SDS011;7180;52.742;11.420;2023-02-21T05:15:08;20.87;;;19.00;;
8584;SDS011;7180;52.742;11.420;2023-02-21T05:17:34;20.63;;;18.93;;
8584;SDS011;7180;52.742;11.420;2023-02-21T05:20:00;20.63;;;18.63;;
8584;SDS011;7180;52.742;11.420;2023-02-21T05:22:25;20.93;;;19.23;;
8584;SDS011;7180;52.742;11.420;2023-02-21T05:24:50;20.47;;;18.67;;
8584;SDS011;7180;52.742;11.420;2023-02-21T05:27:17;20.13;;;18.43;;
8584;SDS011;7180;52.742;11.420;2023-02-21T05:29:48;19.60;;;17.80;;
8584;SDS011;7180;52.742;11.420;2023-02-21T05:32:14;19.47;;;17.87;;
8584;SDS011;7180;52.742;11.420;2023-02-21T05:34:44;20.07;;;18.37;;
8584;SDS011;7180;52.742;11.420;2023-02-21T05:37:12;18.87;;;17.30;;
8584;SDS011;7180;52.742;11.420;2023-02-21T05:39:38;20.03;;;18.40;;
8584;SDS011;7180;52.742;11.420;2023-02-21T05:42:04;21.43;;;19.63;;
8584;SDS011;7180;52.742;11.420;2023-02-21T05:44:32;21.40;;;19.50;;
8584;SDS011;7180;52.742;11.420;2023-02-21T05:46:57;20.93;;;19.13;;
8584;SDS011;7180;52.742;11.420;2023-02-21T05:49:22;21.00;;;19.17;;
8584;SDS011;7180;52.742;11.420;2023-02-21T05:51:48;20.40;;;18.70;;
8584;SDS011;7180;52.742;11.420;2023-02-21T05:54:15;19.83;;;18.23;;
8584;SDS011;7180;52.742;11.420;2023-02-21T05:56:46;20.83;;;18.83;;
8584;SDS011;7180;52.742;11.420;2023-02-21T05:59:13;21.63;;;19.70;;
8584;SDS011;7180;52.742;11.420;2023-02-21T06:01:40;20.33;;;18.60;;
8584;SDS011;7180;52.742;11.420;2023-02-21T06:04:06;21.20;;;19.40;;
8584;SDS011;7180;52.742;11.420;2023-02-21T06:06:32;20.60;;;18.83;;
8584;SDS011;7180;52.742;11.420;2023-02-21T06:08:58;19.23;;;17.53;;
8584;SDS011;7180;52.742;11.420;2023-02-21T06:11:25;19.93;;;18.23;;
8584;SDS011;7180;52.742;11.420;2023-02-21T06:13:52;19.17;;;17.43;;
8584;SDS011;7180;52.742;11.420;2023-02-21T06:16:19;20.10;;;18.30;;
8584;SDS011;7180;52.742;11.420;2023-02-21T06:18:48;21.50;;;19.47;;
8584;SDS011;7180;52.742;11.420;2023-02-21T06:21:17;22.07;;;20.07;;
8584;SDS011;7180;52.742;11.420;2023-02-21T06:23:45;19.03;;;17.33;;
8584;SDS011;7180;52.742;11.420;2023-02-21T06:26:11;19.23;;;17.53;;
8584;SDS011;7180;52.742;11.420;2023-02-21T06:28:37;18.67;;;17.07;;
8584;SDS011;7180;52.742;11.420;2023-02-21T06:31:05;18.70;;;17.03;;
8584;SDS011;7180;52.742;11.420;2023-02-21T06:33:31;18.93;;;17.07;;
8584;SDS011;7180;52.742;11.420;2023-02-21T06:35:57;20.30;;;18.50;;
8584;SDS011;7180;52.742;11.420;2023-02-21T06:38:24;21.03;;;19.17;;
8584;SDS011;7180;52.742;11.420;2023-02-21T06:40:50;19.83;;;18.03;;
8584;SDS011;7180;52.742;11.420;2023-02-21T06:43:15;19.63;;;17.93;;
8584;SDS011;7180;52.742;11.420;2023-02-21T06:45:40;19.30;;;17.57;;
8584;SDS011;7180;52.742;11.420;2023-02-21T06:48:05;20.57;;;18.67;;
8584;SDS011;7180;52.742;11.420;2023-02-21T06:50:32;19.40;;;17.60;;
8584;SDS011;7180;52.742;11.420;2023-02-21T06:52:58;20.43;;;18.57;;
8584;SDS011;7180;52.742;11.420;2023-02-21T06:55:24;18.70;;;17.10;;
8584;SDS011;7180;52.742;11.420;2023-02-21T06:57:51;18.73;;;17.03;;
8584;SDS011;7180;52.742;11.420;2023-02-21T07:00:17;19.33;;;17.67;;
8584;SDS011;7180;52.742;11.420;2023-02-21T07:02:42;19.37;;;17.67;;
8584;SDS011;7180;52.742;11.420;2023-02-21T07:05:08;18.50;;;16.90;;
8584;SDS011;7180;52.742;11.420;2023-02-21T07:07:34;18.80;;;17.10;;
8584;SDS011;7180;52.742;11.420;2023-02-21T07:09:59;18.63;;;16.93;;
8584;SDS011;7180;52.742;11.420;2023-02-21T07:12:27;19.20;;;17.50;;
8584;SDS011;7180;52.742;11.420;2023-02-21T07:14:53;18.67;;;17.10;;
8584;SDS011;7180;52.742;11.420;2023-02-21T07:17:19;18.37;;;16.73;;
8584;SDS011;7180;52.742;11.420;2023-02-21T07:19:44;18.63;;;16.93;;
8584;SDS011;7180;52.742;11.420;2023-02-21T07:22:10;17.83;;;16.33;;
8584;SDS011;7180;52.742;11.420;2023-02-21T07:24:35;18.27;;;16.60;;
8584;SDS011;7180;52.742;11.420;2023-02-21T07:27:01;18.57;;;16.87;;
8584;SDS011;7180;52.742;11.420;2023-02-21T07:29:26;17.70;;;16.10;;
8584;SDS011;7180;52.742;11.420;2023-02-21T07:31:52;18.13;;;16.43;;
8584;SDS011;7180;52.742;11.420;2023-02-21T07:34:17;18.60;;;16.90;;
8584;SDS011;7180;52.742;11.420;2023-02-21T07:36:43;19.03;;;17.20;;
8584;SDS011;7180;52.742;11.420;2023-02-21T07:39:09;18.10;;;16.50;;
8584;SDS011;7180;52.742;11.420;2023-02-21T07:41:35;17.30;;;15.80;;
8584;SDS011;7180;52.742;11.420;2023-02-21T07:44:00;17.43;;;15.80;;
8584;SDS011;7180;52.742;11.420;2023-02-21T07:46:26;16.60;;;15.00;;
8584;SDS011;7180;52.742;11.420;2023-02-21T07:48:52;17.20;;;15.50;;
8584;SDS011;7180;52.742;11.420;2023-02-21T07:51:17;16.57;;;15.17;;
8584;SDS011;7180;52.742;11.420;2023-02-21T07:53:42;16.70;;;15.10;;
8584;SDS011;7180;52.742;11.420;2023-02-21T07:56:08;16.10;;;14.50;;
8584;SDS011;7180;52.742;11.420;2023-02-21T07:58:33;15.47;;;14.17;;
8584;SDS011;7180;52.742;11.420;2023-02-21T08:01:03;15.60;;;14.23;;
8584;SDS011;7180;52.742;11.420;2023-02-21T08:03:30;15.83;;;14.43;;
8584;SDS011;7180;52.742;11.420;2023-02-21T08:05:56;15.67;;;14.30;;
8584;SDS011;7180;52.742;11.420;2023-02-21T08:08:22;15.83;;;14.33;;
8584;SDS011;7180;52.742;11.420;2023-02-21T08:10:47;14.67;;;13.47;;
8584;SDS011;7180;52.742;11.420;2023-02-21T08:13:13;15.00;;;13.80;;
8584;SDS011;7180;52.742;11.420;2023-02-21T08:15:38;14.43;;;13.23;;
8584;SDS011;7180;52.742;11.420;2023-02-21T08:18:04;15.17;;;13.77;;
8584;SDS011;7180;52.742;11.420;2023-02-21T08:20:29;14.70;;;13.50;;
8584;SDS011;7180;52.742;11.420;2023-02-21T08:22:54;15.07;;;13.77;;
8584;SDS011;7180;52.742;11.420;2023-02-21T08:25:20;14.53;;;13.33;;
8584;SDS011;7180;52.742;11.420;2023-02-21T08:27:46;15.30;;;13.90;;
8584;SDS011;7180;52.742;11.420;2023-02-21T08:30:17;15.20;;;13.90;;
8584;SDS011;7180;52.742;11.420;2023-02-21T08:32:42;13.97;;;12.87;;
8584;SDS011;7180;52.742;11.420;2023-02-21T08:35:13;13.40;;;12.40;;
8584;SDS011;7180;52.742;11.420;2023-02-21T08:37:38;14.20;;;13.00;;
8584;SDS011;7180;52.742;11.420;2023-02-21T08:40:09;13.30;;;12.30;;
8584;SDS011;7180;52.742;11.420;2023-02-21T08:42:35;13.70;;;12.50;;
8584;SDS011;7180;52.742;11.420;2023-02-21T08:45:00;13.50;;;12.40;;
8584;SDS011;7180;52.742;11.420;2023-02-21T08:47:26;13.27;;;12.27;;
8584;SDS011;7180;52.742;11.420;2023-02-21T08:49:51;12.80;;;11.70;;
8584;SDS011;7180;52.742;11.420;2023-02-21T08:52:17;12.03;;;11.13;;
8584;SDS011;7180;52.742;11.420;2023-02-21T08:54:43;12.27;;;11.37;;
8584;SDS011;7180;52.742;11.420;2023-02-21T08:57:09;12.60;;;11.70;;
8584;SDS011;7180;52.742;11.420;2023-02-21T08:59:38;11.43;;;10.70;;
8584;SDS011;7180;52.742;11.420;2023-02-21T09:02:08;11.50;;;10.60;;
8584;SDS011;7180;52.742;11.420;2023-02-21T09:04:39;11.97;;;11.07;;
8584;SDS011;7180;52.742;11.420;2023-02-21T09:07:05;11.67;;;10.87;;
8584;SDS011;7180;52.742;11.420;2023-02-21T09:09:30;11.40;;;10.60;;
8584;SDS011;7180;52.742;11.420;2023-02-21T09:11:55;11.83;;;11.03;;
8584;SDS011;7180;52.742;11.420;2023-02-21T09:14:21;11.03;;;10.23;;
8584;SDS011;7180;52.742;11.420;2023-02-21T09:16:46;10.97;;;10.20;;
8584;SDS011;7180;52.742;11.420;2023-02-21T09:19:11;11.50;;;10.70;;
8584;SDS011;7180;52.742;11.420;2023-02-21T09:21:37;10.93;;;10.23;;
8584;SDS011;7180;52.742;11.420;2023-02-21T09:24:09;11.57;;;10.80;;
8584;SDS011;7180;52.742;11.420;2023-02-21T09:26:35;10.37;;;9.77;;
8584;SDS011;7180;52.742;11.420;2023-02-21T09:29:00;9.87;;;9.27;;
8584;SDS011;7180;52.742;11.420;2023-02-21T09:31:26;9.77;;;9.27;;
8584;SDS011;7180;52.742;11.420;2023-02-21T09:33:51;9.23;;;8.73;;
8584;SDS011;7180;52.742;11.420;2023-02-21T09:36:16;9.23;;;8.73;;
8584;SDS011;7180;52.742;11.420;2023-02-21T09:38:47;9.67;;;9.17;;
8584;SDS011;7180;52.742;11.420;2023-02-21T09:41:13;9.67;;;9.10;;
8584;SDS011;7180;52.742;11.420;2023-02-21T09:43:40;9.50;;;9.00;;
8584;SDS011;7180;52.742;11.420;2023-02-21T09:46:17;9.23;;;8.63;;
8584;SDS011;7180;52.742;11.420;2023-02-21T09:48:48;9.70;;;9.20;;
8584;SDS011;7180;52.742;11.420;2023-02-21T09:51:14;9.67;;;8.97;;
8584;SDS011;7180;52.742;11.420;2023-02-21T09:53:41;9.50;;;9.00;;
8584;SDS011;7180;52.742;11.420;2023-02-21T09:58:53;7.50;;;7.10;;
8584;SDS011;7180;52.742;11.420;2023-02-21T10:10:13;7.60;;;7.30;;
8584;SDS011;7180;52.742;11.420;2023-02-21T10:12:53;7.47;;;7.17;;
8584;SDS011;7180;52.742;11.420;2023-02-21T10:18:18;6.73;;;6.43;;
8584;SDS011;7180;52.742;11.420;2023-02-21T10:21:27;6.70;;;6.40;;
8584;SDS011;7180;52.742;11.420;2023-02-21T10:23:56;7.13;;;6.83;;
8584;SDS011;7180;52.742;11.420;2023-02-21T10:26:29;6.67;;;6.27;;
8584;SDS011;7180;52.742;11.420;2023-02-21T10:28:59;7.33;;;7.03;;
8584;SDS011;7180;52.742;11.420;2023-02-21T10:33:59;7.10;;;6.80;;
8584;SDS011;7180;52.742;11.420;2023-02-21T10:36:24;7.07;;;6.77;;
8584;SDS011;7180;52.742;11.420;2023-02-21T10:38:56;8.03;;;7.63;;
8584;SDS011;7180;52.742;11.420;2023-02-21T10:41:26;7.30;;;7.00;;
8584;SDS011;7180;52.742;11.420;2023-02-21T10:43:58;7.60;;;7.30;;
8584;SDS011;7180;52.742;11.420;2023-02-21T10:46:29;7.90;;;7.60;;
8584;SDS011;7180;52.742;11.420;2023-02-21T10:49:16;7.83;;;7.53;;
8584;SDS011;7180;52.742;11.420;2023-02-21T10:51:47;8.57;;;8.17;;
8584;SDS011;7180;52.742;11.420;2023-02-21T10:54:28;7.50;;;7.20;;
8584;SDS011;7180;52.742;11.420;2023-02-21T10:56:53;8.03;;;7.63;;
8584;SDS011;7180;52.742;11.420;2023-02-21T10:59:24;8.50;;;8.10;;
8584;SDS011;7180;52.742;11.420;2023-02-21T11:01:52;8.53;;;8.13;;
8584;SDS011;7180;52.742;11.420;2023-02-21T11:06:45;7.40;;;7.10;;
8584;SDS011;7180;52.742;11.420;2023-02-21T11:09:22;8.30;;;7.90;;
8584;SDS011;7180;52.742;11.420;2023-02-21T11:14:42;8.30;;;7.80;;
8584;SDS011;7180;52.742;11.420;2023-02-21T11:19:53;9.83;;;9.23;;
8584;SDS011;7180;52.742;11.420;2023-02-21T11:22:24;8.40;;;8.00;;
8584;SDS011;7180;52.742;11.420;2023-02-21T11:25:02;8.07;;;7.67;;
8584;SDS011;7180;52.742;11.420;2023-02-21T11:27:31;8.10;;;7.70;;
8584;SDS011;7180;52.742;11.420;2023-02-21T11:29:58;7.40;;;7.10;;
8584;SDS011;7180;52.742;11.420;2023-02-21T11:32:34;9.33;;;8.83;;
8584;SDS011;7180;52.742;11.420;2023-02-21T11:37:47;7.30;;;7.00;;
8584;SDS011;7180;52.742;11.420;2023-02-21T11:40:22;7.70;;;7.40;;
8584;SDS011;7180;52.742;11.420;2023-02-21T11:42:48;8.70;;;8.30;;
8584;SDS011;7180;52.742;11.420;2023-02-21T11:45:28;9.13;;;8.73;;
8584;SDS011;7180;52.742;11.420;2023-02-21T11:48:01;9.30;;;8.90;;
8584;SDS011;7180;52.742;11.420;2023-02-21T11:50:34;8.90;;;8.50;;
8584;SDS011;7180;52.742;11.420;2023-02-21T11:55:59;7.97;;;7.67;;
8584;SDS011;7180;52.742;11.420;2023-02-21T12:01:52;8.43;;;8.03;;
8584;SDS011;7180;52.742;11.420;2023-02-21T12:07:14;9.20;;;8.70;;
8584;SDS011;7180;52.742;11.420;2023-02-21T12:12:31;11.40;;;10.70;;
8584;SDS011;7180;52.742;11.420;2023-02-21T12:17:48;7.77;;;7.37;;
8584;SDS011;7180;52.742;11.420;2023-02-21T12:26:04;8.53;;;8.13;;
8584;SDS011;7180;52.742;11.420;2023-02-21T12:28:45;7.97;;;7.67;;
8584;SDS011;7180;52.742;11.420;2023-02-21T12:31:36;7.80;;;7.50;;
8584;SDS011;7180;52.742;11.420;2023-02-21T12:40:00;10.10;;;9.50;;
8584;SDS011;7180;52.742;11.420;2023-02-21T12:42:44;8.30;;;7.90;;
8584;SDS011;7180;52.742;11.420;2023-02-21T12:45:27;8.90;;;8.50;;
8584;SDS011;7180;52.742;11.420;2023-02-21T12:48:15;8.63;;;8.23;;
8584;SDS011;7180;52.742;11.420;2023-02-21T12:50:51;9.30;;;8.80;;
8584;SDS011;7180;52.742;11.420;2023-02-21T12:53:21;9.43;;;8.93;;
8584;SDS011;7180;52.742;11.420;2023-02-21T12:56:04;9.33;;;8.93;;
8584;SDS011;7180;52.742;11.420;2023-02-21T12:58:37;10.00;;;9.40;;
8584;SDS011;7180;52.742;11.420;2023-02-21T13:01:27;9.33;;;8.93;;
8584;SDS011;7180;52.742;11.420;2023-02-21T13:07:04;9.40;;;9.00;;
8584;SDS011;7180;52.742;11.420;2023-02-21T13:09:39;9.80;;;9.30;;
8584;SDS011;7180;52.742;11.420;2023-02-21T13:12:13;9.77;;;9.37;;
8584;SDS011;7180;52.742;11.420;2023-02-21T13:17:13;9.90;;;9.50;;
8584;SDS011;7180;52.742;11.420;2023-02-21T13:19:42;9.97;;;9.47;;
8584;SDS011;7180;52.742;11.420;2023-02-21T13:22:30;9.20;;;8.80;;
8584;SDS011;7180;52.742;11.420;2023-02-21T13:27:40;10.13;;;9.73;;
8584;SDS011;7180;52.742;11.420;2023-02-21T13:30:36;11.07;;;10.57;;
8584;SDS011;7180;52.742;11.420;2023-02-21T13:33:20;10.67;;;10.07;;
8584;SDS011;7180;52.742;11.420;2023-02-21T13:35:51;11.50;;;10.80;;
8584;SDS011;7180;52.742;11.420;2023-02-21T13:38:17;12.60;;;11.80;;
8584;SDS011;7180;52.742;11.420;2023-02-21T13:40:47;13.53;;;12.73;;
8584;SDS011;7180;52.742;11.420;2023-02-21T13:43:22;13.13;;;12.33;;
8584;SDS011;7180;52.742;11.420;2023-02-21T13:45:50;13.10;;;12.30;;
8584;SDS011;7180;52.742;11.420;2023-02-21T13:48:21;13.30;;;12.40;;
8584;SDS011;7180;52.742;11.420;2023-02-21T13:50:52;14.00;;;13.10;;
8584;SDS011;7180;52.742;11.420;2023-02-21T13:53:26;13.70;;;12.80;;
8584;SDS011;7180;52.742;11.420;2023-02-21T13:58:43;13.83;;;12.93;;
8584;SDS011;7180;52.742;11.420;2023-02-21T14:01:17;14.30;;;13.40;;
8584;SDS011;7180;52.742;11.420;2023-02-21T14:03:43;13.70;;;12.80;;
8584;SDS011;7180;52.742;11.420;2023-02-21T14:08:35;13.90;;;13.10;;
8584;SDS011;7180;52.742;11.420;2023-02-21T14:13:38;12.73;;;11.93;;
8584;SDS011;7180;52.742;11.420;2023-02-21T14:18:37;14.00;;;13.00;;
8584;SDS011;7180;52.742;11.420;2023-02-21T14:21:14;13.87;;;12.87;;
8584;SDS011;7180;52.742;11.420;2023-02-21T14:23:49;12.60;;;11.70;;
8584;SDS011;7180;52.742;11.420;2023-02-21T14:29:09;12.97;;;12.13;;
8584;SDS011;7180;52.742;11.420;2023-02-21T14:31:44;12.90;;;12.10;;
8584;SDS011;7180;52.742;11.420;2023-02-21T14:34:32;12.50;;;11.80;;
8584;SDS011;7180;52.742;11.420;2023-02-21T14:37:03;12.83;;;12.03;;
8584;SDS011;7180;52.742;11.420;2023-02-21T14:39:38;12.83;;;12.00;;
8584;SDS011;7180;52.742;11.420;2023-02-21T14:53:10;13.40;;;12.50;;
8584;SDS011;7180;52.742;11.420;2023-02-21T15:01:04;13.93;;;12.97;;
8584;SDS011;7180;52.742;11.420;2023-02-21T15:03:43;14.60;;;13.53;;
8584;SDS011;7180;52.742;11.420;2023-02-21T15:06:13;14.30;;;13.30;;
8584;SDS011;7180;52.742;11.420;2023-02-21T15:08:49;14.30;;;13.30;;
8584;SDS011;7180;52.742;11.420;2023-02-21T15:11:26;14.27;;;13.20;;
8584;SDS011;7180;52.742;11.420;2023-02-21T15:14:13;14.53;;;13.43;;
8584;SDS011;7180;52.742;11.420;2023-02-21T15:17:00;14.73;;;13.63;;
8584;SDS011;7180;52.742;11.420;2023-02-21T15:19:34;14.40;;;13.40;;
8584;SDS011;7180;52.742;11.420;2023-02-21T15:27:50;14.27;;;13.23;;
8584;SDS011;7180;52.742;11.420;2023-02-21T15:32:52;13.60;;;12.67;;
8584;SDS011;7180;52.742;11.420;2023-02-21T15:35:22;13.80;;;12.90;;
8584;SDS011;7180;52.742;11.420;2023-02-21T15:37:51;14.00;;;13.10;;
8584;SDS011;7180;52.742;11.420;2023-02-21T15:40:21;14.43;;;13.43;;
8584;SDS011;7180;52.742;11.420;2023-02-21T15:42:48;14.27;;;13.27;;
8584;SDS011;7180;52.742;11.420;2023-02-21T15:47:56;15.03;;;13.93;;
8584;SDS011;7180;52.742;11.420;2023-02-21T15:52:55;15.00;;;13.90;;
8584;SDS011;7180;52.742;11.420;2023-02-21T16:08:57;14.07;;;13.03;;
8584;SDS011;7180;52.742;11.420;2023-02-21T16:11:42;13.90;;;13.00;;
8584;SDS011;7180;52.742;11.420;2023-02-21T16:14:29;15.07;;;13.97;;
8584;SDS011;7180;52.742;11.420;2023-02-21T16:17:23;14.43;;;13.33;;
8584;SDS011;7180;52.742;11.420;2023-02-21T16:19:54;14.87;;;13.77;;
8584;SDS011;7180;52.742;11.420;2023-02-21T16:27:52;11.53;;;10.90;;
8584;SDS011;7180;52.742;11.420;2023-02-21T16:30:21;10.70;;;10.10;;
8584;SDS011;7180;52.742;11.420;2023-02-21T16:32:48;10.07;;;9.57;;
8584;SDS011;7180;52.742;11.420;2023-02-21T16:35:19;10.00;;;9.50;;
8584;SDS011;7180;52.742;11.420;2023-02-21T16:37:47;9.63;;;9.23;;
8584;SDS011;7180;52.742;11.420;2023-02-21T16:40:15;9.53;;;9.13;;
8584;SDS011;7180;52.742;11.420;2023-02-21T16:42:46;9.50;;;9.00;;
8584;SDS011;7180;52.742;11.420;2023-02-21T16:45:11;9.07;;;8.67;;
8584;SDS011;7180;52.742;11.420;2023-02-21T16:47:37;8.87;;;8.47;;
8584;SDS011;7180;52.742;11.420;2023-02-21T16:50:02;9.30;;;8.90;;
8584;SDS011;7180;52.742;11.420;2023-02-21T16:52:28;9.30;;;8.90;;
8584;SDS011;7180;52.742;11.420;2023-02-21T16:54:53;9.00;;;8.60;;
8584;SDS011;7180;52.742;11.420;2023-02-21T16:57:19;9.53;;;9.03;;
8584;SDS011;7180;52.742;11.420;2023-02-21T16:59:44;9.43;;;8.97;;
8584;SDS011;7180;52.742;11.420;2023-02-21T17:02:12;9.53;;;9.07;;
8584;SDS011;7180;52.742;11.420;2023-02-21T17:04:38;9.57;;;9.17;;
8584;SDS011;7180;52.742;11.420;2023-02-21T17:07:04;9.10;;;8.70;;
8584;SDS011;7180;52.742;11.420;2023-02-21T17:09:33;9.53;;;9.07;;
8584;SDS011;7180;52.742;11.420;2023-02-21T17:12:03;9.57;;;8.97;;
8584;SDS011;7180;52.742;11.420;2023-02-21T17:14:32;9.27;;;8.77;;
8584;SDS011;7180;52.742;11.420;2023-02-21T17:16:58;9.40;;;9.00;;
8584;SDS011;7180;52.742;11.420;2023-02-21T17:19:23;9.90;;;9.30;;
8584;SDS011;7180;52.742;11.420;2023-02-21T17:21:52;9.20;;;8.80;;
8584;SDS011;7180;52.742;11.420;2023-02-21T17:24:17;9.20;;;8.80;;
8584;SDS011;7180;52.742;11.420;2023-02-21T17:26:43;9.63;;;9.13;;
8584;SDS011;7180;52.742;11.420;2023-02-21T17:29:09;9.50;;;9.10;;
8584;SDS011;7180;52.742;11.420;2023-02-21T17:31:35;9.47;;;9.07;;
8584;SDS011;7180;52.742;11.420;2023-02-21T17:34:01;9.70;;;9.20;;
8584;SDS011;7180;52.742;11.420;2023-02-21T17:36:27;9.67;;;9.27;;